Time,TemperatureF,DewpointF,PressureIn,WindDirection,WindDirectionDegrees,WindSpeedMPH,WindSpeedGustMPH,Humidity,HourlyPrecipIn,Conditions,Clouds,dailyrainin,SolarRadiationWatts/m^2,SoftwareType,DateUTC
2013-08-21 00:01:00,74.0,47.0,-100.00,NE,56,4.0,6.0,38,0.00,,,0.00,0.000000,,2013-08-21 07:01:00,
2013-08-21 00:11:00,74.0,47.0,-100.00,NE,56,4.0,6.0,38,0.00,,,0.00,0.000000,,2013-08-21 07:11:00,
2013-08-21 00:42:00,73.0,51.0,-100.00,NE,42,3.0,7.0,46,0.00,,,0.00,0.000000,,2013-08-21 07:42:00,
2013-08-21 00:53:00,73.0,51.0,-100.00,NE,42,3.0,7.0,46,0.00,,,0.00,0.000000,,2013-08-21 07:53:00,
2013-08-21 01:03:00,73.0,51.0,-100.00,NE,42,3.0,7.0,46,0.00,,,0.00,0.000000,,2013-08-21 08:03:00,
2013-08-21 01:12:00,73.0,51.0,-100.00,NE,42,3.0,7.0,46,0.00,,,0.00,0.000000,,2013-08-21 08:12:00,
2013-08-21 01:43:00,72.0,49.0,-100.00,NE,40,3.0,5.0,44,0.00,,,0.00,0.000000,,2013-08-21 08:43:00,
2013-08-21 01:52:00,72.0,49.0,-100.00,NE,40,3.0,5.0,44,0.00,,,0.00,0.000000,,2013-08-21 08:52:00,
2013-08-21 02:01:00,72.0,49.0,-100.00,NE,40,3.0,5.0,44,0.00,,,0.00,0.000000,,2013-08-21 09:01:00,
2013-08-21 02:11:00,72.0,49.0,-100.00,NE,40,3.0,5.0,44,0.00,,,0.00,0.000000,,2013-08-21 09:11:00,
2013-08-21 02:43:00,71.0,45.0,-100.00,NE,37,3.0,6.0,40,0.00,,,0.00,0.000000,,2013-08-21 09:43:00,
2013-08-21 02:53:00,71.0,45.0,-100.00,NE,37,3.0,6.0,40,0.00,,,0.00,0.000000,,2013-08-21 09:53:00,
2013-08-21 03:03:00,71.0,45.0,-100.00,NE,37,3.0,6.0,40,0.00,,,0.00,0.000000,,2013-08-21 10:03:00,
2013-08-21 03:12:00,71.0,45.0,-100.00,NE,37,3.0,6.0,40,0.00,,,0.00,0.000000,,2013-08-21 10:12:00,
2013-08-21 03:43:00,71.0,45.0,-100.00,NE,52,4.0,6.0,39,0.00,,,0.00,0.000000,,2013-08-21 10:43:00,
2013-08-21 03:52:00,71.0,45.0,-100.00,NE,52,4.0,6.0,39,0.00,,,0.00,0.000000,,2013-08-21 10:52:00,
2013-08-21 04:03:00,71.0,45.0,-100.00,NE,52,4.0,6.0,39,0.00,,,0.00,0.000000,,2013-08-21 11:03:00,
2013-08-21 04:11:00,71.0,45.0,-100.00,NE,52,4.0,6.0,39,0.00,,,0.00,0.000000,,2013-08-21 11:11:00,
2013-08-21 04:42:00,71.0,45.0,-100.00,NE,41,2.0,5.0,39,0.00,,,0.00,0.000000,,2013-08-21 11:42:00,
2013-08-21 04:52:00,71.0,45.0,-100.00,NE,41,2.0,5.0,39,0.00,,,0.00,0.000000,,2013-08-21 11:52:00,
2013-08-21 05:01:00,71.0,45.0,-100.00,NE,41,2.0,5.0,39,0.00,,,0.00,0.000000,,2013-08-21 12:01:00,
2013-08-21 05:12:00,71.0,45.0,-100.00,NE,41,2.0,5.0,39,0.00,,,0.00,0.000000,,2013-08-21 12:12:00,
2013-08-21 05:42:00,70.0,47.0,-100.00,NE,44,3.0,5.0,44,0.00,,,0.00,0.000000,,2013-08-21 12:42:00,
2013-08-21 05:52:00,70.0,47.0,-100.00,NE,44,3.0,5.0,44,0.00,,,0.00,0.000000,,2013-08-21 12:52:00,
2013-08-21 06:02:00,70.0,47.0,-100.00,NE,44,3.0,5.0,44,0.00,,,0.00,0.000000,,2013-08-21 13:02:00,
2013-08-21 06:11:00,70.0,47.0,-100.00,NE,44,3.0,5.0,44,0.00,,,0.00,0.000000,,2013-08-21 13:11:00,
2013-08-21 06:42:00,69.0,51.0,-100.00,ENE,60,3.0,5.0,52,0.00,,,0.00,0.000000,,2013-08-21 13:42:00,
2013-08-21 06:52:00,69.0,51.0,-100.00,ENE,60,3.0,5.0,52,0.00,,,0.00,0.000000,,2013-08-21 13:52:00,
2013-08-21 07:02:00,69.0,51.0,-100.00,ENE,60,3.0,5.0,52,0.00,,,0.00,0.000000,,2013-08-21 14:02:00,
2013-08-21 07:11:00,69.0,51.0,-100.00,ENE,60,3.0,5.0,52,0.00,,,0.00,0.000000,,2013-08-21 14:11:00,
2013-08-21 07:42:00,73.0,54.0,-100.00,ENE,73,2.0,6.0,52,0.00,,,0.00,47.000000,,2013-08-21 14:42:00,
2013-08-21 07:52:00,73.0,54.0,-100.00,ENE,73,2.0,6.0,52,0.00,,,0.00,47.000000,,2013-08-21 14:52:00,
2013-08-21 08:01:00,73.0,54.0,-100.00,ENE,73,2.0,6.0,52,0.00,,,0.00,47.000000,,2013-08-21 15:01:00,
2013-08-21 08:11:00,73.0,54.0,-100.00,ENE,73,2.0,6.0,52,0.00,,,0.00,47.000000,,2013-08-21 15:11:00,
2013-08-21 08:13:00,77.0,55.0,-100.00,SSE,164,2.0,4.0,47,0.00,,,0.00,107.000000,,2013-08-21 15:13:00,
2013-08-21 08:43:00,77.0,55.0,-100.00,SSE,164,2.0,4.0,47,0.00,,,0.00,107.000000,,2013-08-21 15:43:00,
2013-08-21 08:54:00,77.0,55.0,-100.00,SSE,164,2.0,4.0,47,0.00,,,0.00,107.000000,,2013-08-21 15:54:00,
2013-08-21 09:04:00,77.0,55.0,-100.00,SSE,164,2.0,4.0,47,0.00,,,0.00,107.000000,,2013-08-21 16:04:00,
2013-08-21 09:43:00,81.0,48.0,-100.00,WSW,247,5.0,6.0,32,0.00,,,0.00,292.000000,,2013-08-21 16:43:00,
2013-08-21 09:53:00,81.0,48.0,-100.00,WSW,247,5.0,6.0,32,0.00,,,0.00,292.000000,,2013-08-21 16:53:00,
2013-08-21 10:03:00,81.0,48.0,-100.00,WSW,247,5.0,6.0,32,0.00,,,0.00,292.000000,,2013-08-21 17:03:00,
2013-08-21 10:12:00,81.0,48.0,-100.00,WSW,247,5.0,6.0,32,0.00,,,0.00,292.000000,,2013-08-21 17:12:00,
2013-08-21 10:43:00,88.0,46.0,-100.00,SSW,203,4.0,7.0,23,0.00,,,0.00,468.000000,,2013-08-21 17:43:00,
2013-08-21 10:53:00,88.0,46.0,-100.00,SSW,203,4.0,7.0,23,0.00,,,0.00,468.000000,,2013-08-21 17:53:00,
2013-08-21 11:02:00,88.0,46.0,-100.00,SSW,203,4.0,7.0,23,0.00,,,0.00,468.000000,,2013-08-21 18:02:00,
2013-08-21 11:12:00,88.0,46.0,-100.00,SSW,203,4.0,7.0,23,0.00,,,0.00,468.000000,,2013-08-21 18:12:00,
2013-08-21 11:42:00,90.0,45.0,-100.00,WNW,286,5.0,10.0,21,0.00,,,0.00,841.000000,,2013-08-21 18:42:00,
2013-08-21 11:52:00,90.0,45.0,-100.00,WNW,286,5.0,10.0,21,0.00,,,0.00,841.000000,,2013-08-21 18:52:00,
2013-08-21 12:01:00,90.0,45.0,-100.00,WNW,286,5.0,10.0,21,0.00,,,0.00,841.000000,,2013-08-21 19:01:00,
2013-08-21 12:11:00,90.0,45.0,-100.00,WNW,286,5.0,10.0,21,0.00,,,0.00,841.000000,,2013-08-21 19:11:00,
2013-08-21 12:42:00,93.0,50.0,-100.00,WNW,283,5.0,10.0,23,0.00,,,0.00,871.000000,,2013-08-21 19:42:00,
2013-08-21 12:52:00,93.0,50.0,-100.00,WNW,283,5.0,10.0,23,0.00,,,0.00,871.000000,,2013-08-21 19:52:00,
2013-08-21 13:02:00,93.0,50.0,-100.00,WNW,283,5.0,10.0,23,0.00,,,0.00,871.000000,,2013-08-21 20:02:00,
2013-08-21 13:11:00,93.0,50.0,-100.00,WNW,283,5.0,10.0,23,0.00,,,0.00,871.000000,,2013-08-21 20:11:00,
2013-08-21 13:42:00,94.0,51.0,-100.00,West,281,6.0,11.0,23,0.00,,,0.00,908.000000,,2013-08-21 20:42:00,
2013-08-21 13:52:00,94.0,51.0,-100.00,West,281,6.0,11.0,23,0.00,,,0.00,908.000000,,2013-08-21 20:52:00,
2013-08-21 14:02:00,94.0,51.0,-100.00,West,281,6.0,11.0,23,0.00,,,0.00,908.000000,,2013-08-21 21:02:00,
2013-08-21 14:12:00,94.0,51.0,-100.00,West,281,6.0,11.0,23,0.00,,,0.00,908.000000,,2013-08-21 21:12:00,
2013-08-21 14:13:00,98.0,53.0,-100.00,WNW,297,6.0,12.0,22,0.00,,,0.00,890.000000,,2013-08-21 21:13:00,
2013-08-21 14:44:00,98.0,53.0,-100.00,WNW,297,6.0,12.0,22,0.00,,,0.00,890.000000,,2013-08-21 21:44:00,
2013-08-21 14:54:00,98.0,53.0,-100.00,WNW,297,6.0,12.0,22,0.00,,,0.00,890.000000,,2013-08-21 21:54:00,
2013-08-21 15:04:00,98.0,53.0,-100.00,WNW,297,6.0,12.0,22,0.00,,,0.00,890.000000,,2013-08-21 22:04:00,
2013-08-21 15:44:00,97.0,51.0,-100.00,SW,233,5.0,11.0,21,0.00,,,0.00,817.000000,,2013-08-21 22:44:00,
2013-08-21 15:53:00,97.0,51.0,-100.00,SW,233,5.0,11.0,21,0.00,,,0.00,817.000000,,2013-08-21 22:53:00,
2013-08-21 16:03:00,97.0,51.0,-100.00,SW,233,5.0,11.0,21,0.00,,,0.00,817.000000,,2013-08-21 23:03:00,
2013-08-21 16:12:00,97.0,51.0,-100.00,SW,233,5.0,11.0,21,0.00,,,0.00,817.000000,,2013-08-21 23:12:00,
2013-08-21 16:43:00,97.0,51.0,-100.00,WSW,250,6.0,11.0,21,0.00,,,0.00,662.000000,,2013-08-21 23:43:00,
2013-08-21 16:53:00,97.0,51.0,-100.00,WSW,250,6.0,11.0,21,0.00,,,0.00,662.000000,,2013-08-21 23:53:00,
2013-08-21 17:02:00,97.0,51.0,-100.00,WSW,250,6.0,11.0,21,0.00,,,0.00,662.000000,,2013-08-22 00:02:00,
2013-08-21 17:12:00,97.0,51.0,-100.00,WSW,250,6.0,11.0,21,0.00,,,0.00,662.000000,,2013-08-22 00:12:00,
2013-08-21 17:42:00,97.0,51.0,-100.00,WNW,300,5.0,10.0,21,0.00,,,0.00,483.000000,,2013-08-22 00:42:00,
2013-08-21 17:52:00,97.0,51.0,-100.00,WNW,300,5.0,10.0,21,0.00,,,0.00,483.000000,,2013-08-22 00:52:00,
2013-08-21 18:02:00,97.0,51.0,-100.00,WNW,300,5.0,10.0,21,0.00,,,0.00,483.000000,,2013-08-22 01:02:00,
2013-08-21 18:11:00,97.0,51.0,-100.00,WNW,300,5.0,10.0,21,0.00,,,0.00,483.000000,,2013-08-22 01:11:00,
2013-08-21 18:42:00,95.0,51.0,-100.00,West,273,5.0,9.0,23,0.00,,,0.00,290.000000,,2013-08-22 01:42:00,
2013-08-21 18:52:00,95.0,51.0,-100.00,West,273,5.0,9.0,23,0.00,,,0.00,290.000000,,2013-08-22 01:52:00,
2013-08-21 19:03:00,95.0,51.0,-100.00,West,273,5.0,9.0,23,0.00,,,0.00,290.000000,,2013-08-22 02:03:00,
2013-08-21 19:12:00,95.0,51.0,-100.00,West,273,5.0,9.0,23,0.00,,,0.00,290.000000,,2013-08-22 02:12:00,
2013-08-21 19:52:00,89.0,49.0,-100.00,SW,216,2.0,7.0,25,0.00,,,0.00,99.000000,,2013-08-22 02:52:00,
2013-08-21 20:02:00,89.0,49.0,-100.00,SW,216,2.0,7.0,25,0.00,,,0.00,99.000000,,2013-08-22 03:02:00,
2013-08-21 20:12:00,89.0,49.0,-100.00,SW,216,2.0,7.0,25,0.00,,,0.00,99.000000,,2013-08-22 03:12:00,
2013-08-21 20:13:00,83.0,47.0,-100.00,NE,36,0.0,4.0,29,0.00,,,0.00,5.000000,,2013-08-22 03:13:00,
2013-08-21 20:45:00,83.0,47.0,-100.00,NE,36,0.0,4.0,29,0.00,,,0.00,5.000000,,2013-08-22 03:45:00,
2013-08-21 20:54:00,83.0,47.0,-100.00,NE,36,0.0,4.0,29,0.00,,,0.00,5.000000,,2013-08-22 03:54:00,
2013-08-21 21:04:00,83.0,47.0,-100.00,NE,36,0.0,4.0,29,0.00,,,0.00,5.000000,,2013-08-22 04:04:00,
2013-08-21 21:44:00,80.0,47.0,-100.00,NE,46,3.0,6.0,32,0.00,,,0.00,0.000000,,2013-08-22 04:44:00,
2013-08-21 21:54:00,80.0,47.0,-100.00,NE,46,3.0,6.0,32,0.00,,,0.00,0.000000,,2013-08-22 04:54:00,
2013-08-21 22:03:00,80.0,47.0,-100.00,NE,46,3.0,6.0,32,0.00,,,0.00,0.000000,,2013-08-22 05:03:00,
2013-08-21 22:12:00,80.0,47.0,-100.00,NE,46,3.0,6.0,32,0.00,,,0.00,0.000000,,2013-08-22 05:12:00,
2013-08-21 22:43:00,79.0,49.0,-100.00,ENE,57,6.0,7.0,35,0.00,,,0.00,0.000000,,2013-08-22 05:43:00,
2013-08-21 22:52:00,79.0,49.0,-100.00,ENE,57,6.0,7.0,35,0.00,,,0.00,0.000000,,2013-08-22 05:52:00,
2013-08-21 23:02:00,79.0,49.0,-100.00,ENE,57,6.0,7.0,35,0.00,,,0.00,0.000000,,2013-08-22 06:02:00,
2013-08-21 23:12:00,79.0,49.0,-100.00,ENE,57,6.0,7.0,35,0.00,,,0.00,0.000000,,2013-08-22 06:12:00,
2013-08-21 23:42:00,79.0,50.0,-100.00,ENE,65,4.0,7.0,36,0.00,,,0.00,0.000000,,2013-08-22 06:42:00,
2013-08-21 23:52:00,79.0,50.0,-100.00,ENE,65,4.0,7.0,36,0.00,,,0.00,0.000000,,2013-08-22 06:52:00,